sensor_id;sensor_type;location;lat;lon;timestamp;pressure;altitude;pressure_sealevel;temperature;humidity
49297;BME280;35163;48.878;18.040;2022-10-16T00:00:53;98733.91;;;15.68;69.28
49297;BME280;35163;48.878;18.040;2022-10-16T00:03:20;98739.19;;;15.66;69.00
49297;BME280;35163;48.878;18.040;2022-10-16T00:05:53;98745.13;;;15.70;69.12
49297;BME280;35163;48.878;18.040;2022-10-16T00:08:19;98737.22;;;15.72;69.16
49297;BME280;35163;48.878;18.040;2022-10-16T00:10:46;98732.84;;;15.72;69.07
49297;BME280;35163;48.878;18.040;2022-10-16T00:13:12;98736.50;;;15.68;68.79
49297;BME280;35163;48.878;18.040;2022-10-16T00:15:39;98741.72;;;15.68;68.92
49297;BME280;35163;48.878;18.040;2022-10-16T00:18:06;98742.34;;;15.73;68.85
49297;BME280;35163;48.878;18.040;2022-10-16T00:20:36;98736.38;;;15.71;69.00
49297;BME280;35163;48.878;18.040;2022-10-16T00:23:04;98736.31;;;15.73;68.78
49297;BME280;35163;48.878;18.040;2022-10-16T00:25:31;98741.38;;;15.76;68.99
49297;BME280;35163;48.878;18.040;2022-10-16T00:28:00;98742.19;;;15.76;69.18
49297;BME280;35163;48.878;18.040;2022-10-16T00:30:27;98741.38;;;15.76;69.21
49297;BME280;35163;48.878;18.040;2022-10-16T00:32:54;98747.34;;;15.78;69.01
49297;BME280;35163;48.878;18.040;2022-10-16T00:35:21;98749.03;;;15.79;68.87
49297;BME280;35163;48.878;18.040;2022-10-16T00:37:48;98738.69;;;15.77;68.87
49297;BME280;35163;48.878;18.040;2022-10-16T00:40:14;98738.69;;;15.77;68.67
49297;BME280;35163;48.878;18.040;2022-10-16T00:42:41;98745.66;;;15.77;68.51
49297;BME280;35163;48.878;18.040;2022-10-16T00:45:08;98745.66;;;15.77;68.92
49297;BME280;35163;48.878;18.040;2022-10-16T00:47:41;98755.88;;;15.82;69.55
49297;BME280;35163;48.878;18.040;2022-10-16T00:50:09;98769.06;;;15.78;68.91
49297;BME280;35163;48.878;18.040;2022-10-16T00:52:44;98759.41;;;15.81;68.99
49297;BME280;35163;48.878;18.040;2022-10-16T00:55:12;98758.47;;;15.82;68.81
49297;BME280;35163;48.878;18.040;2022-10-16T00:57:39;98755.78;;;15.83;68.75
49297;BME280;35163;48.878;18.040;2022-10-16T01:00:08;98759.31;;;15.82;68.52
49297;BME280;35163;48.878;18.040;2022-10-16T01:02:36;98761.00;;;15.83;68.35
49297;BME280;35163;48.878;18.040;2022-10-16T01:05:03;98755.78;;;15.83;67.91
49297;BME280;35163;48.878;18.040;2022-10-16T01:10:35;98756.63;;;15.84;68.29
49297;BME280;35163;48.878;18.040;2022-10-16T01:13:09;98752.44;;;15.81;67.96
49297;BME280;35163;48.878;18.040;2022-10-16T01:15:53;98754.97;;;15.83;68.10
49297;BME280;35163;48.878;18.040;2022-10-16T01:18:44;98748.91;;;15.82;68.22
49297;BME280;35163;48.878;18.040;2022-10-16T01:21:16;98743.75;;;15.81;68.33
49297;BME280;35163;48.878;18.040;2022-10-16T01:27:10;98742.91;;;15.80;67.91
49297;BME280;35163;48.878;18.040;2022-10-16T01:32:31;98749.91;;;15.79;68.13
49297;BME280;35163;48.878;18.040;2022-10-16T01:35:09;98753.41;;;15.78;68.32
49297;BME280;35163;48.878;18.040;2022-10-16T01:40:13;98755.22;;;15.76;68.34
49297;BME280;35163;48.878;18.040;2022-10-16T01:42:51;98752.63;;;15.76;68.38
49297;BME280;35163;48.878;18.040;2022-10-16T01:45:20;98762.31;;;15.74;68.77
49297;BME280;35163;48.878;18.040;2022-10-16T01:47:49;98765.13;;;15.70;68.70
49297;BME280;35163;48.878;18.040;2022-10-16T01:50:18;98765.03;;;15.71;69.26
49297;BME280;35163;48.878;18.040;2022-10-16T01:52:49;98762.59;;;15.68;68.65
49297;BME280;35163;48.878;18.040;2022-10-16T01:55:23;98766.13;;;15.67;68.49
49297;BME280;35163;48.878;18.040;2022-10-16T01:57:51;98767.78;;;15.68;68.28
49297;BME280;35163;48.878;18.040;2022-10-16T02:00:21;98767.94;;;15.65;68.64
49297;BME280;35163;48.878;18.040;2022-10-16T02:02:51;98766.13;;;15.67;68.63
49297;BME280;35163;48.878;18.040;2022-10-16T02:05:27;98759.34;;;15.63;69.01
49297;BME280;35163;48.878;18.040;2022-10-16T02:07:55;98757.81;;;15.59;69.41
49297;BME280;35163;48.878;18.040;2022-10-16T02:10:26;98767.69;;;15.52;69.55
49297;BME280;35163;48.878;18.040;2022-10-16T02:13:03;98756.63;;;15.47;69.72
49297;BME280;35163;48.878;18.040;2022-10-16T02:15:31;98758.53;;;15.43;69.53
49297;BME280;35163;48.878;18.040;2022-10-16T02:17:58;98775.97;;;15.41;69.83
49297;BME280;35163;48.878;18.040;2022-10-16T02:20:27;98785.47;;;15.42;69.72
49297;BME280;35163;48.878;18.040;2022-10-16T02:22:56;98789.78;;;15.43;69.59
49297;BME280;35163;48.878;18.040;2022-10-16T02:25:36;98781.34;;;15.38;70.20
49297;BME280;35163;48.878;18.040;2022-10-16T02:31:18;98786.19;;;15.26;74.22
49297;BME280;35163;48.878;18.040;2022-10-16T02:33:37;98795.19;;;15.19;73.92
49297;BME280;35163;48.878;18.040;2022-10-16T02:36:05;98790.88;;;15.18;74.25
49297;BME280;35163;48.878;18.040;2022-10-16T02:38:33;98796.31;;;15.13;75.19
49297;BME280;35163;48.878;18.040;2022-10-16T02:41:01;98785.81;;;15.15;75.08
49297;BME280;35163;48.878;18.040;2022-10-16T02:43:27;98793.00;;;15.10;74.75
49297;BME280;35163;48.878;18.040;2022-10-16T02:45:54;98793.69;;;15.13;74.08
49297;BME280;35163;48.878;18.040;2022-10-16T02:48:20;98803.22;;;15.14;74.05
49297;BME280;35163;48.878;18.040;2022-10-16T02:50:47;98811.16;;;15.11;73.89
49297;BME280;35163;48.878;18.040;2022-10-16T02:53:13;98812.72;;;15.15;73.85
49297;BME280;35163;48.878;18.040;2022-10-16T02:55:40;98819.69;;;15.15;74.43
49297;BME280;35163;48.878;18.040;2022-10-16T02:58:07;98824.88;;;15.15;74.86
49297;BME280;35163;48.878;18.040;2022-10-16T03:00:33;98822.41;;;15.12;75.36
49297;BME280;35163;48.878;18.040;2022-10-16T03:03:00;98834.66;;;15.10;75.85
49297;BME280;35163;48.878;18.040;2022-10-16T03:05:26;98833.13;;;15.05;76.40
49297;BME280;35163;48.878;18.040;2022-10-16T03:07:53;98832.41;;;15.02;76.57
49297;BME280;35163;48.878;18.040;2022-10-16T03:10:19;98836.63;;;15.04;76.91
49297;BME280;35163;48.878;18.040;2022-10-16T03:12:46;98820.41;;;14.98;77.05
49297;BME280;35163;48.878;18.040;2022-10-16T03:15:12;98817.75;;;14.99;77.14
49297;BME280;35163;48.878;18.040;2022-10-16T03:17:39;98816.91;;;14.99;76.69
49297;BME280;35163;48.878;18.040;2022-10-16T03:20:06;98801.41;;;14.96;76.09
49297;BME280;35163;48.878;18.040;2022-10-16T03:22:33;98805.63;;;14.98;76.04
49297;BME280;35163;48.878;18.040;2022-10-16T03:24:59;98815.19;;;14.98;75.97
49297;BME280;35163;48.878;18.040;2022-10-16T03:27:26;98819.44;;;15.00;75.14
49297;BME280;35163;48.878;18.040;2022-10-16T03:29:53;98812.47;;;15.01;74.69
49297;BME280;35163;48.878;18.040;2022-10-16T03:32:19;98813.25;;;15.03;74.31
49297;BME280;35163;48.878;18.040;2022-10-16T03:34:46;98813.97;;;15.06;74.10
49297;BME280;35163;48.878;18.040;2022-10-16T03:37:13;98816.56;;;15.06;73.38
49297;BME280;35163;48.878;18.040;2022-10-16T03:39:39;98815.63;;;15.07;73.69
49297;BME280;35163;48.878;18.040;2022-10-16T03:42:06;98807.72;;;15.11;73.68
49297;BME280;35163;48.878;18.040;2022-10-16T03:44:32;98799.06;;;15.10;73.23
49297;BME280;35163;48.878;18.040;2022-10-16T03:46:59;98808.47;;;15.13;72.73
49297;BME280;35163;48.878;18.040;2022-10-16T03:49:25;98806.00;;;15.10;72.44
49297;BME280;35163;48.878;18.040;2022-10-16T03:51:52;98815.25;;;15.17;72.09
49297;BME280;35163;48.878;18.040;2022-10-16T03:54:19;98822.22;;;15.16;71.70
49297;BME280;35163;48.878;18.040;2022-10-16T03:56:45;98817.00;;;15.16;71.97
49297;BME280;35163;48.878;18.040;2022-10-16T03:59:12;98822.28;;;15.15;71.74
49297;BME280;35163;48.878;18.040;2022-10-16T04:01:38;98827.25;;;15.21;71.63
49297;BME280;35163;48.878;18.040;2022-10-16T04:04:05;98829.19;;;15.16;71.74
49297;BME280;35163;48.878;18.040;2022-10-16T04:06:31;98827.28;;;15.19;71.84
49297;BME280;35163;48.878;18.040;2022-10-16T04:08:58;98823.63;;;15.24;71.71
49297;BME280;35163;48.878;18.040;2022-10-16T04:11:25;98829.94;;;15.18;71.40
49297;BME280;35163;48.878;18.040;2022-10-16T04:13:51;98824.75;;;15.18;71.55
49297;BME280;35163;48.878;18.040;2022-10-16T04:16:18;98824.41;;;15.26;71.38
49297;BME280;35163;48.878;18.040;2022-10-16T04:18:45;98825.31;;;15.25;71.53
49297;BME280;35163;48.878;18.040;2022-10-16T04:21:11;98830.28;;;15.31;71.53
49297;BME280;35163;48.878;18.040;2022-10-16T04:23:38;98823.34;;;15.30;71.53
49297;BME280;35163;48.878;18.040;2022-10-16T04:26:05;98830.34;;;15.29;71.39
49297;BME280;35163;48.878;18.040;2022-10-16T04:28:31;98814.56;;;15.33;71.54
49297;BME280;35163;48.878;18.040;2022-10-16T04:31:04;98812.25;;;15.26;71.74
49297;BME280;35163;48.878;18.040;2022-10-16T04:33:31;98813.00;;;15.28;71.26
49297;BME280;35163;48.878;18.040;2022-10-16T04:35:59;98827.81;;;15.28;71.55
49297;BME280;35163;48.878;18.040;2022-10-16T04:38:26;98832.03;;;15.30;71.57
49297;BME280;35163;48.878;18.040;2022-10-16T04:40:53;98832.16;;;15.27;71.71
49297;BME280;35163;48.878;18.040;2022-10-16T04:43:20;98828.53;;;15.32;71.58
49297;BME280;35163;48.878;18.040;2022-10-16T04:45:47;98835.41;;;15.33;71.69
49297;BME280;35163;48.878;18.040;2022-10-16T04:48:13;98838.09;;;15.31;71.92
49297;BME280;35163;48.878;18.040;2022-10-16T04:50:40;98838.28;;;15.26;72.34
49297;BME280;35163;48.878;18.040;2022-10-16T04:53:07;98845.41;;;15.23;72.53
49297;BME280;35163;48.878;18.040;2022-10-16T04:55:34;98847.94;;;15.24;72.54
49297;BME280;35163;48.878;18.040;2022-10-16T04:58:01;98847.44;;;15.16;72.01
49297;BME280;35163;48.878;18.040;2022-10-16T05:00:27;98854.38;;;15.15;72.18
49297;BME280;35163;48.878;18.040;2022-10-16T05:02:54;98853.66;;;15.12;72.53
49297;BME280;35163;48.878;18.040;2022-10-16T05:05:21;98858.09;;;15.10;72.44
49297;BME280;35163;48.878;18.040;2022-10-16T05:07:47;98869.94;;;15.17;72.40
49297;BME280;35163;48.878;18.040;2022-10-16T05:10:15;98870.72;;;15.19;72.71
49297;BME280;35163;48.878;18.040;2022-10-16T05:12:42;98874.44;;;15.13;74.49
49297;BME280;35163;48.878;18.040;2022-10-16T05:15:09;98878.94;;;15.10;75.21
49297;BME280;35163;48.878;18.040;2022-10-16T05:17:35;98887.72;;;15.07;75.73
49297;BME280;35163;48.878;18.040;2022-10-16T05:20:08;98887.72;;;15.07;75.84
49297;BME280;35163;48.878;18.040;2022-10-16T05:22:34;98890.66;;;14.99;76.68
49297;BME280;35163;48.878;18.040;2022-10-16T05:25:01;98896.72;;;15.00;76.39
49297;BME280;35163;48.878;18.040;2022-10-16T05:27:27;98895.09;;;14.97;76.77
49297;BME280;35163;48.878;18.040;2022-10-16T05:29:54;98885.72;;;14.93;76.90
49297;BME280;35163;48.878;18.040;2022-10-16T05:32:21;98875.44;;;14.90;77.30
49297;BME280;35163;48.878;18.040;2022-10-16T05:34:48;98884.97;;;14.89;77.06
49297;BME280;35163;48.878;18.040;2022-10-16T05:37:14;98884.13;;;14.89;76.88
49297;BME280;35163;48.878;18.040;2022-10-16T05:39:41;98896.50;;;14.84;76.22
49297;BME280;35163;48.878;18.040;2022-10-16T05:42:07;98899.75;;;14.89;76.12
49297;BME280;35163;48.878;18.040;2022-10-16T05:44:34;98897.16;;;14.89;76.23
49297;BME280;35163;48.878;18.040;2022-10-16T05:47:00;98897.94;;;14.91;76.03
49297;BME280;35163;48.878;18.040;2022-10-16T05:49:27;98896.06;;;14.94;75.83
49297;BME280;35163;48.878;18.040;2022-10-16T05:51:54;98910.75;;;14.96;76.12
49297;BME280;35163;48.878;18.040;2022-10-16T05:54:20;98915.84;;;14.99;75.80
49297;BME280;35163;48.878;18.040;2022-10-16T05:56:47;98920.88;;;15.03;75.37
49297;BME280;35163;48.878;18.040;2022-10-16T05:59:13;98916.38;;;15.07;75.79
49297;BME280;35163;48.878;18.040;2022-10-16T06:01:40;98921.00;;;15.21;75.01
49297;BME280;35163;48.878;18.040;2022-10-16T06:04:08;98925.94;;;15.27;75.00
49297;BME280;35163;48.878;18.040;2022-10-16T06:06:39;98920.81;;;15.26;74.80
49297;BME280;35163;48.878;18.040;2022-10-16T06:09:09;98915.72;;;15.23;73.86
49297;BME280;35163;48.878;18.040;2022-10-16T06:11:36;98930.28;;;15.27;72.99
49297;BME280;35163;48.878;18.040;2022-10-16T06:14:03;98932.06;;;15.26;72.65
49297;BME280;35163;48.878;18.040;2022-10-16T06:16:34;98927.50;;;15.32;72.72
49297;BME280;35163;48.878;18.040;2022-10-16T06:19:03;98937.78;;;15.35;73.24
49297;BME280;35163;48.878;18.040;2022-10-16T06:21:32;98954.97;;;15.39;73.24
49297;BME280;35163;48.878;18.040;2022-10-16T06:23:59;98956.63;;;15.41;73.33
49297;BME280;35163;48.878;18.040;2022-10-16T06:26:29;98955.63;;;15.44;72.84
49297;BME280;35163;48.878;18.040;2022-10-16T06:28:57;98959.00;;;15.46;72.87
49297;BME280;35163;48.878;18.040;2022-10-16T06:31:24;98963.31;;;15.47;73.11
49297;BME280;35163;48.878;18.040;2022-10-16T06:33:57;98968.41;;;15.50;72.82
49297;BME280;35163;48.878;18.040;2022-10-16T06:36:24;98968.28;;;15.53;72.88
49297;BME280;35163;48.878;18.040;2022-10-16T06:38:51;98970.75;;;15.57;72.56
49297;BME280;35163;48.878;18.040;2022-10-16T06:41:20;98981.81;;;15.62;72.47
49297;BME280;35163;48.878;18.040;2022-10-16T06:43:47;98986.03;;;15.64;72.42
49297;BME280;35163;48.878;18.040;2022-10-16T06:46:17;98990.94;;;15.72;71.55
49297;BME280;35163;48.878;18.040;2022-10-16T06:48:44;98991.56;;;15.77;71.75
49297;BME280;35163;48.878;18.040;2022-10-16T06:51:19;98992.22;;;15.83;72.01
49297;BME280;35163;48.878;18.040;2022-10-16T06:53:48;98994.09;;;15.79;71.99
49297;BME280;35163;48.878;18.040;2022-10-16T06:56:31;98991.44;;;15.81;71.84
49297;BME280;35163;48.878;18.040;2022-10-16T06:58:59;98987.06;;;15.81;71.91
49297;BME280;35163;48.878;18.040;2022-10-16T07:01:27;98988.69;;;15.84;71.92
49297;BME280;35163;48.878;18.040;2022-10-16T07:03:54;98998.31;;;15.82;71.88
49297;BME280;35163;48.878;18.040;2022-10-16T07:06:22;98986.06;;;15.84;71.89
49297;BME280;35163;48.878;18.040;2022-10-16T07:08:49;98995.47;;;15.88;72.12
49297;BME280;35163;48.878;18.040;2022-10-16T07:11:18;98995.72;;;15.82;72.11
49297;BME280;35163;48.878;18.040;2022-10-16T07:13:46;98992.28;;;15.81;72.87
49297;BME280;35163;48.878;18.040;2022-10-16T07:16:25;98998.06;;;15.88;72.26
49297;BME280;35163;48.878;18.040;2022-10-16T07:18:54;98999.03;;;15.85;72.38
49297;BME280;35163;48.878;18.040;2022-10-16T07:21:28;99002.56;;;15.84;72.59
49297;BME280;35163;48.878;18.040;2022-10-16T07:23:59;99011.25;;;15.85;72.81
49297;BME280;35163;48.878;18.040;2022-10-16T07:26:29;99011.19;;;15.86;72.41
49297;BME280;35163;48.878;18.040;2022-10-16T07:28:56;99017.38;;;15.84;72.49
49297;BME280;35163;48.878;18.040;2022-10-16T07:31:23;99018.94;;;15.88;72.35
49297;BME280;35163;48.878;18.040;2022-10-16T07:33:50;99015.53;;;15.86;72.04
49297;BME280;35163;48.878;18.040;2022-10-16T07:36:19;99022.38;;;15.88;72.27
49297;BME280;35163;48.878;18.040;2022-10-16T07:38:46;99027.50;;;15.90;71.87
49297;BME280;35163;48.878;18.040;2022-10-16T07:41:16;99023.09;;;15.92;72.42
49297;BME280;35163;48.878;18.040;2022-10-16T07:43:50;99026.63;;;15.91;71.32
49297;BME280;35163;48.878;18.040;2022-10-16T07:46:17;99020.47;;;15.92;71.42
49297;BME280;35163;48.878;18.040;2022-10-16T07:48:44;99019.50;;;15.95;71.91
49297;BME280;35163;48.878;18.040;2022-10-16T07:51:15;99012.38;;;16.00;71.73
49297;BME280;35163;48.878;18.040;2022-10-16T07:53:42;99023.56;;;16.02;71.36
49297;BME280;35163;48.878;18.040;2022-10-16T07:56:09;99024.34;;;16.04;71.51
49297;BME280;35163;48.878;18.040;2022-10-16T07:58:37;99021.53;;;16.09;72.04
49297;BME280;35163;48.878;18.040;2022-10-16T08:01:06;99028.38;;;16.11;71.82
49297;BME280;35163;48.878;18.040;2022-10-16T08:03:33;99023.88;;;16.15;71.43
49297;BME280;35163;48.878;18.040;2022-10-16T08:06:00;99032.19;;;16.23;71.46
49297;BME280;35163;48.878;18.040;2022-10-16T08:08:27;99043.25;;;16.28;71.21
49297;BME280;35163;48.878;18.040;2022-10-16T08:10:54;99051.72;;;16.34;71.65
49297;BME280;35163;48.878;18.040;2022-10-16T08:13:21;99064.56;;;16.38;71.64
49297;BME280;35163;48.878;18.040;2022-10-16T08:15:48;99071.50;;;16.39;72.08
49297;BME280;35163;48.878;18.040;2022-10-16T08:18:15;99078.38;;;16.40;71.10
49297;BME280;35163;48.878;18.040;2022-10-16T08:20:43;99072.19;;;16.43;70.47
49297;BME280;35163;48.878;18.040;2022-10-16T08:23:11;99073.19;;;16.40;69.56
49297;BME280;35163;48.878;18.040;2022-10-16T08:25:39;99074.84;;;16.42;70.27
49297;BME280;35163;48.878;18.040;2022-10-16T08:28:07;99069.59;;;16.43;70.28
49297;BME280;35163;48.878;18.040;2022-10-16T08:30:35;99076.41;;;16.46;70.63
49297;BME280;35163;48.878;18.040;2022-10-16T08:33:02;99070.16;;;16.50;70.89
49297;BME280;35163;48.878;18.040;2022-10-16T08:35:29;99076.06;;;16.54;70.47
49297;BME280;35163;48.878;18.040;2022-10-16T08:37:56;99079.44;;;16.56;70.80
49297;BME280;35163;48.878;18.040;2022-10-16T08:40:25;99087.03;;;16.62;70.79
49297;BME280;35163;48.878;18.040;2022-10-16T08:45:58;99077.69;;;16.75;70.61
49297;BME280;35163;48.878;18.040;2022-10-16T08:48:57;99068.53;;;16.86;70.33
49297;BME280;35163;48.878;18.040;2022-10-16T08:51:26;99064.56;;;16.96;69.47
49297;BME280;35163;48.878;18.040;2022-10-16T08:53:54;99070.91;;;17.10;69.25
49297;BME280;35163;48.878;18.040;2022-10-16T08:56:23;99058.00;;;17.24;68.71
49297;BME280;35163;48.878;18.040;2022-10-16T08:58:52;99058.63;;;17.47;67.90
49297;BME280;35163;48.878;18.040;2022-10-16T09:01:45;99060.00;;;17.72;67.46
49297;BME280;35163;48.878;18.040;2022-10-16T09:10:09;99066.91;;;17.91;64.78
49297;BME280;35163;48.878;18.040;2022-10-16T09:12:53;99065.66;;;17.98;65.82
49297;BME280;35163;48.878;18.040;2022-10-16T09:20:30;99066.78;;;18.10;63.32
49297;BME280;35163;48.878;18.040;2022-10-16T09:25:32;99075.56;;;18.27;63.72
49297;BME280;35163;48.878;18.040;2022-10-16T09:27:59;99074.66;;;18.44;64.08
49297;BME280;35163;48.878;18.040;2022-10-16T09:30:28;99078.19;;;18.60;61.91
49297;BME280;35163;48.878;18.040;2022-10-16T09:32:57;99082.97;;;18.85;63.11
49297;BME280;35163;48.878;18.040;2022-10-16T09:35:33;99088.19;;;19.01;61.93
49297;BME280;35163;48.878;18.040;2022-10-16T09:38:02;99079.75;;;19.12;61.17
49297;BME280;35163;48.878;18.040;2022-10-16T09:40:32;99082.75;;;19.04;59.86
49297;BME280;35163;48.878;18.040;2022-10-16T09:48:22;99090.88;;;19.32;59.16
49297;BME280;35163;48.878;18.040;2022-10-16T09:50:56;99091.69;;;19.49;60.22
49297;BME280;35163;48.878;18.040;2022-10-16T09:53:23;99082.50;;;19.56;60.01
49297;BME280;35163;48.878;18.040;2022-10-16T09:55:53;99079.88;;;19.56;60.42
49297;BME280;35163;48.878;18.040;2022-10-16T09:58:23;99086.84;;;19.57;60.44
49297;BME280;35163;48.878;18.040;2022-10-16T10:00:52;99105.53;;;19.51;59.62
49297;BME280;35163;48.878;18.040;2022-10-16T10:03:33;99103.84;;;19.50;58.80
49297;BME280;35163;48.878;18.040;2022-10-16T10:11:59;99109.28;;;19.47;60.25
49297;BME280;35163;48.878;18.040;2022-10-16T10:17:10;99114.13;;;19.38;61.43
49297;BME280;35163;48.878;18.040;2022-10-16T10:19:49;99107.72;;;19.28;61.13
49297;BME280;35163;48.878;18.040;2022-10-16T10:22:32;99111.69;;;19.19;60.52
49297;BME280;35163;48.878;18.040;2022-10-16T10:36:28;99106.78;;;18.97;59.60
49297;BME280;35163;48.878;18.040;2022-10-16T10:38:59;99095.53;;;18.94;60.71
49297;BME280;35163;48.878;18.040;2022-10-16T10:47:00;99114.06;;;19.08;60.20
49297;BME280;35163;48.878;18.040;2022-10-16T10:49:48;99106.25;;;19.06;59.45
49297;BME280;35163;48.878;18.040;2022-10-16T10:55:37;99108.97;;;19.04;60.54
49297;BME280;35163;48.878;18.040;2022-10-16T10:58:19;99088.19;;;19.01;59.45
49297;BME280;35163;48.878;18.040;2022-10-16T11:01:08;99108.81;;;19.08;59.69
49297;BME280;35163;48.878;18.040;2022-10-16T11:03:56;99116.44;;;19.12;59.11
49297;BME280;35163;48.878;18.040;2022-10-16T11:06:31;99103.06;;;19.17;58.96
49297;BME280;35163;48.878;18.040;2022-10-16T11:11:44;99104.25;;;19.27;58.75
49297;BME280;35163;48.878;18.040;2022-10-16T11:14:25;99090.47;;;19.24;59.04
49297;BME280;35163;48.878;18.040;2022-10-16T11:16:59;99104.69;;;19.20;58.96
49297;BME280;35163;48.878;18.040;2022-10-16T11:25:00;99105.69;;;19.33;59.05
49297;BME280;35163;48.878;18.040;2022-10-16T11:30:22;99100.84;;;19.41;58.51
49297;BME280;35163;48.878;18.040;2022-10-16T11:40:43;99097.44;;;19.55;58.28
49297;BME280;35163;48.878;18.040;2022-10-16T11:43:19;99088.44;;;19.60;58.63
49297;BME280;35163;48.878;18.040;2022-10-16T11:45:59;99099.78;;;19.75;58.45
49297;BME280;35163;48.878;18.040;2022-10-16T11:48:45;99092.88;;;19.74;57.62
49297;BME280;35163;48.878;18.040;2022-10-16T11:54:24;99087.72;;;19.87;58.18
49297;BME280;35163;48.878;18.040;2022-10-16T11:56:59;99094.38;;;19.92;57.80
49297;BME280;35163;48.878;18.040;2022-10-16T11:59:34;99096.63;;;19.84;56.68
49297;BME280;35163;48.878;18.040;2022-10-16T12:05:06;99088.97;;;19.96;57.04
49297;BME280;35163;48.878;18.040;2022-10-16T12:07:44;99091.06;;;20.05;56.68
49297;BME280;35163;48.878;18.040;2022-10-16T12:10:24;99095.38;;;20.06;56.04
49297;BME280;35163;48.878;18.040;2022-10-16T12:12:53;99088.34;;;20.07;56.30
49297;BME280;35163;48.878;18.040;2022-10-16T12:15:28;99086.75;;;20.19;56.51
49297;BME280;35163;48.878;18.040;2022-10-16T12:18:23;99073.44;;;20.22;56.37
49297;BME280;35163;48.878;18.040;2022-10-16T12:20:55;99066.66;;;20.03;56.39
49297;BME280;35163;48.878;18.040;2022-10-16T12:23:26;99078.88;;;20.19;56.76
49297;BME280;35163;48.878;18.040;2022-10-16T12:25:57;99084.69;;;20.24;56.80
49297;BME280;35163;48.878;18.040;2022-10-16T12:28:34;99083.41;;;20.31;55.89
49297;BME280;35163;48.878;18.040;2022-10-16T12:31:04;99069.69;;;20.26;55.23
49297;BME280;35163;48.878;18.040;2022-10-16T12:33:33;99073.44;;;20.22;55.93
49297;BME280;35163;48.878;18.040;2022-10-16T12:36:04;99078.22;;;20.30;55.64
49297;BME280;35163;48.878;18.040;2022-10-16T12:38:46;99080.78;;;20.31;56.05
49297;BME280;35163;48.878;18.040;2022-10-16T12:41:27;99087.41;;;20.37;55.34
49297;BME280;35163;48.878;18.040;2022-10-16T12:43:55;99085.81;;;20.34;56.22
49297;BME280;35163;48.878;18.040;2022-10-16T12:46:33;99078.69;;;20.22;55.61
49297;BME280;35163;48.878;18.040;2022-10-16T12:51:41;99087.31;;;20.24;56.31
49297;BME280;35163;48.878;18.040;2022-10-16T12:54:15;99087.88;;;20.14;55.44
49297;BME280;35163;48.878;18.040;2022-10-16T13:16:59;99089.38;;;20.19;55.44
49297;BME280;35163;48.878;18.040;2022-10-16T13:19:44;99083.66;;;20.26;55.70
49297;BME280;35163;48.878;18.040;2022-10-16T13:30:19;99076.25;;;20.33;54.79
49297;BME280;35163;48.878;18.040;2022-10-16T13:33:00;99074.56;;;20.32;54.29
49297;BME280;35163;48.878;18.040;2022-10-16T13:35:30;99081.31;;;20.36;54.84
49297;BME280;35163;48.878;18.040;2022-10-16T13:38:27;99087.09;;;20.42;54.83
49297;BME280;35163;48.878;18.040;2022-10-16T13:43:47;99079.16;;;20.43;55.17
49297;BME280;35163;48.878;18.040;2022-10-16T13:46:20;99085.34;;;20.42;54.48
49297;BME280;35163;48.878;18.040;2022-10-16T13:49:12;99084.69;;;20.38;54.93
49297;BME280;35163;48.878;18.040;2022-10-16T13:51:57;99098.56;;;20.40;54.15
49297;BME280;35163;48.878;18.040;2022-10-16T13:54:25;99106.06;;;20.32;54.74
49297;BME280;35163;48.878;18.040;2022-10-16T13:56:53;99099.88;;;20.33;54.45
49297;BME280;35163;48.878;18.040;2022-10-16T13:59:36;99091.06;;;20.34;54.32
49297;BME280;35163;48.878;18.040;2022-10-16T14:02:32;99109.00;;;20.27;53.96
49297;BME280;35163;48.878;18.040;2022-10-16T14:05:04;99102.81;;;20.14;54.42
49297;BME280;35163;48.878;18.040;2022-10-16T14:07:36;99096.69;;;20.13;54.49
49297;BME280;35163;48.878;18.040;2022-10-16T14:10:07;99107.19;;;20.13;54.69
49297;BME280;35163;48.878;18.040;2022-10-16T14:12:44;99106.53;;;20.10;55.39
49297;BME280;35163;48.878;18.040;2022-10-16T14:15:18;99110.00;;;20.10;55.23
49297;BME280;35163;48.878;18.040;2022-10-16T14:17:50;99110.94;;;20.09;55.06
49297;BME280;35163;48.878;18.040;2022-10-16T14:20:17;99107.63;;;20.06;54.96
49297;BME280;35163;48.878;18.040;2022-10-16T14:22:44;99103.59;;;20.00;54.93
49297;BME280;35163;48.878;18.040;2022-10-16T14:27:45;99115.19;;;19.96;55.69
49297;BME280;35163;48.878;18.040;2022-10-16T14:30:22;99113.16;;;20.01;55.51
49297;BME280;35163;48.878;18.040;2022-10-16T14:33:01;99119.44;;;19.98;55.54
49297;BME280;35163;48.878;18.040;2022-10-16T14:35:32;99121.09;;;19.99;55.82
49297;BME280;35163;48.878;18.040;2022-10-16T14:38:01;99119.78;;;19.92;56.43
49297;BME280;35163;48.878;18.040;2022-10-16T14:40:31;99117.25;;;19.90;56.25
49297;BME280;35163;48.878;18.040;2022-10-16T14:42:59;99129.47;;;19.91;55.99
49297;BME280;35163;48.878;18.040;2022-10-16T14:45:30;99133.19;;;19.87;55.82
49297;BME280;35163;48.878;18.040;2022-10-16T14:47:59;99128.78;;;19.88;55.80
49297;BME280;35163;48.878;18.040;2022-10-16T14:50:27;99136.75;;;19.86;55.62
49297;BME280;35163;48.878;18.040;2022-10-16T14:52:54;99136.75;;;19.86;55.75
49297;BME280;35163;48.878;18.040;2022-10-16T14:55:21;99136.09;;;19.83;55.79
49297;BME280;35163;48.878;18.040;2022-10-16T14:57:48;99133.56;;;19.81;55.78
49297;BME280;35163;48.878;18.040;2022-10-16T15:00:20;99128.31;;;19.81;55.84
49297;BME280;35163;48.878;18.040;2022-10-16T15:02:48;99128.50;;;19.78;56.60
49297;BME280;35163;48.878;18.040;2022-10-16T15:07:42;99135.94;;;19.70;56.07
49297;BME280;35163;48.878;18.040;2022-10-16T15:10:09;99135.94;;;19.70;56.08
49297;BME280;35163;48.878;18.040;2022-10-16T15:12:36;99132.91;;;19.61;56.20
49297;BME280;35163;48.878;18.040;2022-10-16T15:17:50;99141.44;;;19.50;56.30